sensor_id;sensor_type;location;lat;lon;timestamp;P1;durP1;ratioP1;P2;durP2;ratioP2
70270;SDS011;57680;54.292;18.598;2022-12-08T00:01:47;4.47;;;1.93;;
70270;SDS011;57680;54.292;18.598;2022-12-08T00:04:13;4.68;;;1.70;;
70270;SDS011;57680;54.292;18.598;2022-12-08T00:06:39;4.23;;;1.80;;
70270;SDS011;57680;54.292;18.598;2022-12-08T00:09:29;4.00;;;1.52;;
70270;SDS011;57680;54.292;18.598;2022-12-08T00:11:58;4.30;;;1.50;;
70270;SDS011;57680;54.292;18.598;2022-12-08T00:14:35;4.50;;;1.20;;
70270;SDS011;57680;54.292;18.598;2022-12-08T00:17:03;4.68;;;1.85;;
70270;SDS011;57680;54.292;18.598;2022-12-08T00:19:30;3.70;;;1.42;;
70270;SDS011;57680;54.292;18.598;2022-12-08T00:21:57;4.15;;;1.60;;
70270;SDS011;57680;54.292;18.598;2022-12-08T00:24:23;4.53;;;1.70;;
70270;SDS011;57680;54.292;18.598;2022-12-08T00:26:50;5.47;;;1.40;;
70270;SDS011;57680;54.292;18.598;2022-12-08T00:29:16;3.95;;;1.40;;
70270;SDS011;57680;54.292;18.598;2022-12-08T00:31:42;3.43;;;1.50;;
70270;SDS011;57680;54.292;18.598;2022-12-08T00:34:07;4.57;;;1.48;;
70270;SDS011;57680;54.292;18.598;2022-12-08T00:36:33;4.07;;;1.60;;
70270;SDS011;57680;54.292;18.598;2022-12-08T00:38:59;5.10;;;1.67;;
70270;SDS011;57680;54.292;18.598;2022-12-08T00:41:25;5.30;;;1.60;;
70270;SDS011;57680;54.292;18.598;2022-12-08T00:44:11;4.28;;;1.50;;
70270;SDS011;57680;54.292;18.598;2022-12-08T00:46:38;4.07;;;1.60;;
70270;SDS011;57680;54.292;18.598;2022-12-08T00:49:04;3.80;;;1.27;;
70270;SDS011;57680;54.292;18.598;2022-12-08T00:51:31;6.53;;;1.95;;
70270;SDS011;57680;54.292;18.598;2022-12-08T00:53:56;4.30;;;1.50;;
70270;SDS011;57680;54.292;18.598;2022-12-08T00:56:22;6.25;;;2.35;;
70270;SDS011;57680;54.292;18.598;2022-12-08T00:58:48;5.57;;;1.60;;
70270;SDS011;57680;54.292;18.598;2022-12-08T01:01:14;4.63;;;1.33;;
70270;SDS011;57680;54.292;18.598;2022-12-08T01:03:40;6.57;;;1.90;;
70270;SDS011;57680;54.292;18.598;2022-12-08T01:06:06;5.28;;;1.40;;
70270;SDS011;57680;54.292;18.598;2022-12-08T01:08:33;6.35;;;1.60;;
70270;SDS011;57680;54.292;18.598;2022-12-08T01:11:04;5.00;;;1.60;;
70270;SDS011;57680;54.292;18.598;2022-12-08T01:13:35;4.13;;;1.30;;
70270;SDS011;57680;54.292;18.598;2022-12-08T01:16:01;5.57;;;1.47;;
70270;SDS011;57680;54.292;18.598;2022-12-08T01:18:28;5.38;;;1.70;;
70270;SDS011;57680;54.292;18.598;2022-12-08T01:20:54;4.47;;;1.50;;
70270;SDS011;57680;54.292;18.598;2022-12-08T01:23:19;4.53;;;1.70;;
70270;SDS011;57680;54.292;18.598;2022-12-08T01:25:45;3.97;;;1.35;;
70270;SDS011;57680;54.292;18.598;2022-12-08T01:28:10;5.90;;;1.60;;
70270;SDS011;57680;54.292;18.598;2022-12-08T01:30:39;5.33;;;1.60;;
70270;SDS011;57680;54.292;18.598;2022-12-08T01:33:05;5.43;;;1.60;;
70270;SDS011;57680;54.292;18.598;2022-12-08T01:35:30;3.97;;;1.40;;
70270;SDS011;57680;54.292;18.598;2022-12-08T01:37:57;4.57;;;1.50;;
70270;SDS011;57680;54.292;18.598;2022-12-08T01:40:23;3.97;;;1.17;;
70270;SDS011;57680;54.292;18.598;2022-12-08T01:42:49;3.60;;;1.20;;
70270;SDS011;57680;54.292;18.598;2022-12-08T01:47:51;3.27;;;1.23;;
70270;SDS011;57680;54.292;18.598;2022-12-08T01:50:20;3.97;;;1.60;;
70270;SDS011;57680;54.292;18.598;2022-12-08T01:52:47;4.28;;;1.33;;
70270;SDS011;57680;54.292;18.598;2022-12-08T01:55:21;3.67;;;1.17;;
70270;SDS011;57680;54.292;18.598;2022-12-08T01:58:05;5.00;;;1.50;;
70270;SDS011;57680;54.292;18.598;2022-12-08T02:00:52;4.63;;;1.10;;
70270;SDS011;57680;54.292;18.598;2022-12-08T02:03:20;3.30;;;1.20;;
70270;SDS011;57680;54.292;18.598;2022-12-08T02:05:51;3.90;;;1.40;;
70270;SDS011;57680;54.292;18.598;2022-12-08T02:08:17;5.90;;;1.63;;
70270;SDS011;57680;54.292;18.598;2022-12-08T02:10:43;6.30;;;1.65;;
70270;SDS011;57680;54.292;18.598;2022-12-08T02:13:14;3.65;;;1.48;;
70270;SDS011;57680;54.292;18.598;2022-12-08T02:18:33;4.03;;;1.30;;
70270;SDS011;57680;54.292;18.598;2022-12-08T02:21:25;3.57;;;1.30;;
70270;SDS011;57680;54.292;18.598;2022-12-08T02:26:32;3.77;;;1.27;;
70270;SDS011;57680;54.292;18.598;2022-12-08T02:34:36;4.57;;;1.00;;
70270;SDS011;57680;54.292;18.598;2022-12-08T02:37:42;3.35;;;1.10;;
70270;SDS011;57680;54.292;18.598;2022-12-08T02:40:33;3.87;;;1.20;;
70270;SDS011;57680;54.292;18.598;2022-12-08T02:43:07;2.92;;;1.10;;
70270;SDS011;57680;54.292;18.598;2022-12-08T02:45:40;3.47;;;1.38;;
70270;SDS011;57680;54.292;18.598;2022-12-08T02:48:11;4.20;;;1.50;;
70270;SDS011;57680;54.292;18.598;2022-12-08T02:50:38;4.32;;;1.70;;
70270;SDS011;57680;54.292;18.598;2022-12-08T02:53:03;3.83;;;1.27;;
70270;SDS011;57680;54.292;18.598;2022-12-08T02:58:22;3.92;;;1.50;;
70270;SDS011;57680;54.292;18.598;2022-12-08T03:01:04;4.05;;;1.40;;
70270;SDS011;57680;54.292;18.598;2022-12-08T03:06:31;2.97;;;1.30;;
70270;SDS011;57680;54.292;18.598;2022-12-08T03:14:39;3.03;;;1.20;;
70270;SDS011;57680;54.292;18.598;2022-12-08T03:17:09;3.95;;;1.73;;
70270;SDS011;57680;54.292;18.598;2022-12-08T03:19:36;3.97;;;1.50;;
70270;SDS011;57680;54.292;18.598;2022-12-08T03:22:06;4.13;;;1.30;;
70270;SDS011;57680;54.292;18.598;2022-12-08T03:24:36;2.97;;;1.10;;
70270;SDS011;57680;54.292;18.598;2022-12-08T03:27:23;2.58;;;1.10;;
70270;SDS011;57680;54.292;18.598;2022-12-08T03:29:51;4.03;;;1.42;;
70270;SDS011;57680;54.292;18.598;2022-12-08T03:34:50;3.00;;;1.00;;
70270;SDS011;57680;54.292;18.598;2022-12-08T03:37:19;3.45;;;1.30;;
70270;SDS011;57680;54.292;18.598;2022-12-08T03:39:45;2.70;;;1.20;;
70270;SDS011;57680;54.292;18.598;2022-12-08T03:42:11;3.17;;;1.37;;
70270;SDS011;57680;54.292;18.598;2022-12-08T03:44:36;3.45;;;1.20;;
70270;SDS011;57680;54.292;18.598;2022-12-08T03:47:02;5.00;;;1.50;;
70270;SDS011;57680;54.292;18.598;2022-12-08T03:49:27;3.13;;;1.20;;
70270;SDS011;57680;54.292;18.598;2022-12-08T03:51:53;3.83;;;1.40;;
70270;SDS011;57680;54.292;18.598;2022-12-08T03:54:18;3.63;;;1.53;;
70270;SDS011;57680;54.292;18.598;2022-12-08T03:56:44;4.43;;;1.50;;
70270;SDS011;57680;54.292;18.598;2022-12-08T03:59:09;5.65;;;1.13;;
70270;SDS011;57680;54.292;18.598;2022-12-08T04:01:35;3.97;;;1.30;;
70270;SDS011;57680;54.292;18.598;2022-12-08T04:04:01;4.97;;;1.50;;
70270;SDS011;57680;54.292;18.598;2022-12-08T04:06:26;3.57;;;1.63;;
70270;SDS011;57680;54.292;18.598;2022-12-08T04:08:52;4.90;;;1.60;;
70270;SDS011;57680;54.292;18.598;2022-12-08T04:11:18;4.03;;;1.40;;
70270;SDS011;57680;54.292;18.598;2022-12-08T04:13:44;3.22;;;1.27;;
70270;SDS011;57680;54.292;18.598;2022-12-08T04:16:16;4.67;;;1.10;;
70270;SDS011;57680;54.292;18.598;2022-12-08T04:18:46;3.53;;;1.10;;
70270;SDS011;57680;54.292;18.598;2022-12-08T04:21:12;4.17;;;1.30;;
70270;SDS011;57680;54.292;18.598;2022-12-08T04:23:38;3.30;;;1.15;;
70270;SDS011;57680;54.292;18.598;2022-12-08T04:26:04;5.05;;;1.20;;
70270;SDS011;57680;54.292;18.598;2022-12-08T04:28:30;3.53;;;1.42;;
70270;SDS011;57680;54.292;18.598;2022-12-08T04:30:56;3.33;;;1.10;;
70270;SDS011;57680;54.292;18.598;2022-12-08T04:33:21;2.85;;;1.13;;
70270;SDS011;57680;54.292;18.598;2022-12-08T04:35:47;3.33;;;0.97;;
70270;SDS011;57680;54.292;18.598;2022-12-08T04:38:13;3.40;;;0.90;;
70270;SDS011;57680;54.292;18.598;2022-12-08T04:40:39;3.27;;;1.00;;
70270;SDS011;57680;54.292;18.598;2022-12-08T04:43:04;2.95;;;1.10;;
70270;SDS011;57680;54.292;18.598;2022-12-08T04:45:30;3.67;;;1.30;;
70270;SDS011;57680;54.292;18.598;2022-12-08T04:47:57;2.67;;;1.00;;
70270;SDS011;57680;54.292;18.598;2022-12-08T04:50:23;2.42;;;0.90;;
70270;SDS011;57680;54.292;18.598;2022-12-08T04:52:49;2.97;;;1.10;;
70270;SDS011;57680;54.292;18.598;2022-12-08T04:55:15;2.80;;;0.90;;
70270;SDS011;57680;54.292;18.598;2022-12-08T04:57:40;2.97;;;1.00;;
70270;SDS011;57680;54.292;18.598;2022-12-08T05:00:06;2.88;;;1.00;;
70270;SDS011;57680;54.292;18.598;2022-12-08T05:02:32;3.17;;;1.27;;
70270;SDS011;57680;54.292;18.598;2022-12-08T05:04:57;3.77;;;1.07;;
70270;SDS011;57680;54.292;18.598;2022-12-08T05:07:23;2.43;;;1.20;;
70270;SDS011;57680;54.292;18.598;2022-12-08T05:09:48;3.53;;;1.10;;
70270;SDS011;57680;54.292;18.598;2022-12-08T05:12:14;2.33;;;0.93;;
70270;SDS011;57680;54.292;18.598;2022-12-08T05:14:39;2.53;;;1.30;;
70270;SDS011;57680;54.292;18.598;2022-12-08T05:17:05;2.93;;;1.20;;
70270;SDS011;57680;54.292;18.598;2022-12-08T05:19:30;2.65;;;0.90;;
70270;SDS011;57680;54.292;18.598;2022-12-08T05:21:56;3.50;;;1.00;;
70270;SDS011;57680;54.292;18.598;2022-12-08T05:24:21;4.40;;;1.30;;
70270;SDS011;57680;54.292;18.598;2022-12-08T05:26:47;4.88;;;1.00;;
70270;SDS011;57680;54.292;18.598;2022-12-08T05:29:12;3.97;;;1.40;;
70270;SDS011;57680;54.292;18.598;2022-12-08T05:31:38;3.03;;;1.17;;
70270;SDS011;57680;54.292;18.598;2022-12-08T05:34:03;4.65;;;1.23;;
70270;SDS011;57680;54.292;18.598;2022-12-08T05:36:29;3.67;;;1.20;;
70270;SDS011;57680;54.292;18.598;2022-12-08T05:38:55;2.90;;;1.10;;
70270;SDS011;57680;54.292;18.598;2022-12-08T05:41:22;4.05;;;1.30;;
70270;SDS011;57680;54.292;18.598;2022-12-08T05:43:48;3.38;;;1.35;;
70270;SDS011;57680;54.292;18.598;2022-12-08T05:46:13;4.32;;;1.20;;
70270;SDS011;57680;54.292;18.598;2022-12-08T05:48:40;5.53;;;1.50;;
70270;SDS011;57680;54.292;18.598;2022-12-08T05:51:06;4.13;;;1.20;;
70270;SDS011;57680;54.292;18.598;2022-12-08T05:53:40;3.17;;;1.05;;
70270;SDS011;57680;54.292;18.598;2022-12-08T05:56:05;3.83;;;0.90;;
70270;SDS011;57680;54.292;18.598;2022-12-08T05:58:31;7.53;;;2.22;;
70270;SDS011;57680;54.292;18.598;2022-12-08T06:00:56;5.70;;;1.00;;
70270;SDS011;57680;54.292;18.598;2022-12-08T06:03:22;3.13;;;1.20;;
70270;SDS011;57680;54.292;18.598;2022-12-08T06:05:47;4.35;;;1.27;;
70270;SDS011;57680;54.292;18.598;2022-12-08T06:08:13;4.47;;;1.30;;
70270;SDS011;57680;54.292;18.598;2022-12-08T06:10:39;2.80;;;1.10;;
70270;SDS011;57680;54.292;18.598;2022-12-08T06:13:06;4.18;;;1.30;;
70270;SDS011;57680;54.292;18.598;2022-12-08T06:15:35;3.30;;;1.20;;
70270;SDS011;57680;54.292;18.598;2022-12-08T06:18:02;4.60;;;1.20;;
70270;SDS011;57680;54.292;18.598;2022-12-08T06:20:27;4.18;;;0.98;;
70270;SDS011;57680;54.292;18.598;2022-12-08T06:22:53;3.23;;;1.07;;
70270;SDS011;57680;54.292;18.598;2022-12-08T06:25:19;5.67;;;1.40;;
70270;SDS011;57680;54.292;18.598;2022-12-08T06:27:45;5.43;;;1.50;;
70270;SDS011;57680;54.292;18.598;2022-12-08T06:30:11;5.27;;;1.57;;
70270;SDS011;57680;54.292;18.598;2022-12-08T06:32:36;4.45;;;1.30;;
70270;SDS011;57680;54.292;18.598;2022-12-08T06:35:02;4.33;;;1.47;;
70270;SDS011;57680;54.292;18.598;2022-12-08T06:37:28;4.60;;;1.63;;
70270;SDS011;57680;54.292;18.598;2022-12-08T06:50:04;3.93;;;0.90;;
70270;SDS011;57680;54.292;18.598;2022-12-08T07:03:52;5.50;;;1.33;;
70270;SDS011;57680;54.292;18.598;2022-12-08T07:06:19;4.70;;;1.47;;
70270;SDS011;57680;54.292;18.598;2022-12-08T07:08:47;3.85;;;1.23;;
70270;SDS011;57680;54.292;18.598;2022-12-08T07:11:12;5.83;;;1.50;;
70270;SDS011;57680;54.292;18.598;2022-12-08T07:13:37;4.72;;;1.20;;
70270;SDS011;57680;54.292;18.598;2022-12-08T07:16:07;4.23;;;1.30;;
70270;SDS011;57680;54.292;18.598;2022-12-08T07:18:33;5.15;;;1.40;;
70270;SDS011;57680;54.292;18.598;2022-12-08T07:21:06;5.60;;;1.63;;
70270;SDS011;57680;54.292;18.598;2022-12-08T07:23:33;6.07;;;1.90;;
70270;SDS011;57680;54.292;18.598;2022-12-08T07:26:03;7.15;;;1.83;;
70270;SDS011;57680;54.292;18.598;2022-12-08T07:28:33;5.15;;;1.90;;
70270;SDS011;57680;54.292;18.598;2022-12-08T07:30:59;6.07;;;2.00;;
70270;SDS011;57680;54.292;18.598;2022-12-08T07:33:25;5.55;;;2.20;;
70270;SDS011;57680;54.292;18.598;2022-12-08T07:35:57;6.70;;;2.07;;
70270;SDS011;57680;54.292;18.598;2022-12-08T07:38:24;5.28;;;1.75;;
70270;SDS011;57680;54.292;18.598;2022-12-08T07:40:50;6.18;;;2.25;;
70270;SDS011;57680;54.292;18.598;2022-12-08T07:43:16;6.53;;;2.20;;
70270;SDS011;57680;54.292;18.598;2022-12-08T07:45:42;6.10;;;1.88;;
70270;SDS011;57680;54.292;18.598;2022-12-08T07:48:07;5.50;;;1.83;;
70270;SDS011;57680;54.292;18.598;2022-12-08T07:50:33;7.45;;;2.33;;
70270;SDS011;57680;54.292;18.598;2022-12-08T07:52:59;6.87;;;2.07;;
70270;SDS011;57680;54.292;18.598;2022-12-08T07:55:25;5.43;;;1.85;;
70270;SDS011;57680;54.292;18.598;2022-12-08T07:57:51;5.72;;;2.20;;
70270;SDS011;57680;54.292;18.598;2022-12-08T08:00:17;6.13;;;1.90;;
70270;SDS011;57680;54.292;18.598;2022-12-08T08:02:43;7.88;;;2.05;;
70270;SDS011;57680;54.292;18.598;2022-12-08T08:05:09;5.83;;;1.70;;
70270;SDS011;57680;54.292;18.598;2022-12-08T08:07:36;4.40;;;1.70;;
70270;SDS011;57680;54.292;18.598;2022-12-08T08:10:02;5.15;;;1.88;;
70270;SDS011;57680;54.292;18.598;2022-12-08T08:12:29;8.05;;;2.05;;
70270;SDS011;57680;54.292;18.598;2022-12-08T08:14:55;6.70;;;2.53;;
70270;SDS011;57680;54.292;18.598;2022-12-08T08:17:20;5.67;;;2.03;;
70270;SDS011;57680;54.292;18.598;2022-12-08T08:19:46;5.53;;;2.07;;
70270;SDS011;57680;54.292;18.598;2022-12-08T08:22:11;6.20;;;1.80;;
70270;SDS011;57680;54.292;18.598;2022-12-08T08:24:37;6.73;;;2.37;;
70270;SDS011;57680;54.292;18.598;2022-12-08T08:27:02;6.43;;;2.67;;
70270;SDS011;57680;54.292;18.598;2022-12-08T08:29:28;6.32;;;1.92;;
70270;SDS011;57680;54.292;18.598;2022-12-08T08:31:53;5.03;;;2.00;;
70270;SDS011;57680;54.292;18.598;2022-12-08T08:34:19;6.43;;;2.20;;
70270;SDS011;57680;54.292;18.598;2022-12-08T08:36:44;5.57;;;2.00;;
70270;SDS011;57680;54.292;18.598;2022-12-08T08:39:10;6.30;;;1.90;;
70270;SDS011;57680;54.292;18.598;2022-12-08T08:41:36;5.70;;;2.20;;
70270;SDS011;57680;54.292;18.598;2022-12-08T08:44:02;5.25;;;2.10;;
70270;SDS011;57680;54.292;18.598;2022-12-08T08:46:28;5.47;;;2.23;;
70270;SDS011;57680;54.292;18.598;2022-12-08T08:48:53;7.40;;;2.23;;
70270;SDS011;57680;54.292;18.598;2022-12-08T08:51:19;5.57;;;2.03;;
70270;SDS011;57680;54.292;18.598;2022-12-08T08:53:44;5.67;;;2.00;;
70270;SDS011;57680;54.292;18.598;2022-12-08T08:56:11;6.30;;;2.20;;
70270;SDS011;57680;54.292;18.598;2022-12-08T08:58:38;5.50;;;2.33;;
70270;SDS011;57680;54.292;18.598;2022-12-08T09:01:04;5.85;;;2.22;;
70270;SDS011;57680;54.292;18.598;2022-12-08T09:03:30;7.27;;;2.40;;
70270;SDS011;57680;54.292;18.598;2022-12-08T09:05:55;6.50;;;2.35;;
70270;SDS011;57680;54.292;18.598;2022-12-08T09:08:22;7.60;;;2.50;;
70270;SDS011;57680;54.292;18.598;2022-12-08T09:10:48;8.32;;;2.72;;
70270;SDS011;57680;54.292;18.598;2022-12-08T09:13:13;7.33;;;2.50;;
70270;SDS011;57680;54.292;18.598;2022-12-08T09:15:39;8.43;;;3.57;;
70270;SDS011;57680;54.292;18.598;2022-12-08T09:18:04;7.10;;;2.77;;
70270;SDS011;57680;54.292;18.598;2022-12-08T09:20:31;6.85;;;2.67;;
70270;SDS011;57680;54.292;18.598;2022-12-08T09:22:57;8.15;;;2.88;;
70270;SDS011;57680;54.292;18.598;2022-12-08T09:25:24;7.88;;;3.05;;
70270;SDS011;57680;54.292;18.598;2022-12-08T09:27:49;9.83;;;2.70;;
70270;SDS011;57680;54.292;18.598;2022-12-08T09:30:15;8.50;;;3.43;;
70270;SDS011;57680;54.292;18.598;2022-12-08T09:32:40;10.18;;;3.45;;
70270;SDS011;57680;54.292;18.598;2022-12-08T09:35:06;12.70;;;3.80;;
70270;SDS011;57680;54.292;18.598;2022-12-08T09:37:32;10.80;;;3.58;;
70270;SDS011;57680;54.292;18.598;2022-12-08T09:39:57;11.50;;;3.63;;
70270;SDS011;57680;54.292;18.598;2022-12-08T09:42:43;10.30;;;3.85;;
70270;SDS011;57680;54.292;18.598;2022-12-08T09:45:15;9.77;;;3.90;;
70270;SDS011;57680;54.292;18.598;2022-12-08T09:47:43;10.35;;;3.30;;
70270;SDS011;57680;54.292;18.598;2022-12-08T09:53:22;10.80;;;3.30;;
70270;SDS011;57680;54.292;18.598;2022-12-08T09:55:56;12.32;;;4.00;;
70270;SDS011;57680;54.292;18.598;2022-12-08T10:01:08;8.18;;;3.30;;
70270;SDS011;57680;54.292;18.598;2022-12-08T10:03:34;11.32;;;3.88;;
70270;SDS011;57680;54.292;18.598;2022-12-08T10:09:00;13.60;;;3.85;;
70270;SDS011;57680;54.292;18.598;2022-12-08T10:14:56;14.25;;;4.30;;
70270;SDS011;57680;54.292;18.598;2022-12-08T10:17:23;12.15;;;3.88;;
70270;SDS011;57680;54.292;18.598;2022-12-08T10:19:57;13.68;;;4.43;;
70270;SDS011;57680;54.292;18.598;2022-12-08T10:22:26;13.85;;;4.57;;
70270;SDS011;57680;54.292;18.598;2022-12-08T10:25:19;11.10;;;3.77;;
70270;SDS011;57680;54.292;18.598;2022-12-08T10:27:48;15.18;;;4.32;;
70270;SDS011;57680;54.292;18.598;2022-12-08T10:30:16;13.75;;;4.55;;
70270;SDS011;57680;54.292;18.598;2022-12-08T10:32:43;13.30;;;3.88;;
70270;SDS011;57680;54.292;18.598;2022-12-08T10:35:11;14.50;;;4.20;;
70270;SDS011;57680;54.292;18.598;2022-12-08T10:37:38;13.27;;;4.40;;
70270;SDS011;57680;54.292;18.598;2022-12-08T10:40:15;12.82;;;4.93;;
70270;SDS011;57680;54.292;18.598;2022-12-08T10:42:46;15.65;;;4.65;;
70270;SDS011;57680;54.292;18.598;2022-12-08T10:45:21;15.43;;;4.40;;
70270;SDS011;57680;54.292;18.598;2022-12-08T10:48:01;13.27;;;4.60;;
70270;SDS011;57680;54.292;18.598;2022-12-08T10:53:24;11.73;;;4.03;;
70270;SDS011;57680;54.292;18.598;2022-12-08T10:58:33;12.02;;;4.15;;
70270;SDS011;57680;54.292;18.598;2022-12-08T11:01:13;13.98;;;4.50;;
70270;SDS011;57680;54.292;18.598;2022-12-08T11:03:44;14.97;;;4.60;;
70270;SDS011;57680;54.292;18.598;2022-12-08T11:06:38;16.40;;;4.97;;
70270;SDS011;57680;54.292;18.598;2022-12-08T11:11:50;14.80;;;4.40;;
70270;SDS011;57680;54.292;18.598;2022-12-08T11:14:25;14.70;;;5.25;;
70270;SDS011;57680;54.292;18.598;2022-12-08T11:16:53;12.33;;;4.70;;
70270;SDS011;57680;54.292;18.598;2022-12-08T11:19:26;14.38;;;4.80;;
70270;SDS011;57680;54.292;18.598;2022-12-08T11:21:52;15.82;;;4.85;;
70270;SDS011;57680;54.292;18.598;2022-12-08T11:24:22;13.23;;;4.60;;
70270;SDS011;57680;54.292;18.598;2022-12-08T11:27:07;15.83;;;5.67;;
70270;SDS011;57680;54.292;18.598;2022-12-08T11:29:33;17.90;;;4.88;;
70270;SDS011;57680;54.292;18.598;2022-12-08T11:32:01;14.70;;;4.72;;
70270;SDS011;57680;54.292;18.598;2022-12-08T11:35:04;14.40;;;4.97;;
70270;SDS011;57680;54.292;18.598;2022-12-08T11:37:38;13.73;;;4.07;;
70270;SDS011;57680;54.292;18.598;2022-12-08T11:40:27;12.97;;;3.93;;
70270;SDS011;57680;54.292;18.598;2022-12-08T11:46:07;15.98;;;4.53;;
70270;SDS011;57680;54.292;18.598;2022-12-08T11:51:29;12.25;;;4.22;;
70270;SDS011;57680;54.292;18.598;2022-12-08T11:56:56;16.33;;;5.10;;
70270;SDS011;57680;54.292;18.598;2022-12-08T11:59:27;17.15;;;5.47;;
70270;SDS011;57680;54.292;18.598;2022-12-08T12:01:59;17.00;;;5.97;;
70270;SDS011;57680;54.292;18.598;2022-12-08T12:04:40;16.52;;;5.75;;
70270;SDS011;57680;54.292;18.598;2022-12-08T12:20:16;23.15;;;10.43;;
70270;SDS011;57680;54.292;18.598;2022-12-08T12:23:03;26.15;;;10.82;;
70270;SDS011;57680;54.292;18.598;2022-12-08T12:25:32;18.10;;;7.03;;
70270;SDS011;57680;54.292;18.598;2022-12-08T12:28:02;13.47;;;5.67;;
70270;SDS011;57680;54.292;18.598;2022-12-08T12:30:34;17.95;;;5.50;;
70270;SDS011;57680;54.292;18.598;2022-12-08T12:33:13;15.40;;;5.05;;
70270;SDS011;57680;54.292;18.598;2022-12-08T12:35:40;11.82;;;4.30;;
70270;SDS011;57680;54.292;18.598;2022-12-08T12:41:24;9.67;;;3.37;;
70270;SDS011;57680;54.292;18.598;2022-12-08T12:52:01;14.25;;;3.63;;
70270;SDS011;57680;54.292;18.598;2022-12-08T12:54:28;11.60;;;3.78;;
70270;SDS011;57680;54.292;18.598;2022-12-08T12:56:54;12.40;;;4.13;;
70270;SDS011;57680;54.292;18.598;2022-12-08T13:02:30;13.25;;;3.80;;
70270;SDS011;57680;54.292;18.598;2022-12-08T13:05:02;18.67;;;7.60;;
70270;SDS011;57680;54.292;18.598;2022-12-08T13:08:20;28.97;;;11.33;;
70270;SDS011;57680;54.292;18.598;2022-12-08T13:10:35;18.48;;;7.03;;
70270;SDS011;57680;54.292;18.598;2022-12-08T13:13:06;24.17;;;10.00;;
70270;SDS011;57680;54.292;18.598;2022-12-08T13:18:20;22.40;;;7.90;;
70270;SDS011;57680;54.292;18.598;2022-12-08T13:26:10;22.58;;;8.77;;
70270;SDS011;57680;54.292;18.598;2022-12-08T13:34:43;32.73;;;14.03;;
70270;SDS011;57680;54.292;18.598;2022-12-08T13:39:58;32.78;;;13.30;;
70270;SDS011;57680;54.292;18.598;2022-12-08T13:45:25;27.80;;;11.55;;
70270;SDS011;57680;54.292;18.598;2022-12-08T13:47:52;25.97;;;8.77;;
70270;SDS011;57680;54.292;18.598;2022-12-08T13:50:38;22.33;;;8.65;;
70270;SDS011;57680;54.292;18.598;2022-12-08T13:53:12;24.48;;;9.10;;
70270;SDS011;57680;54.292;18.598;2022-12-08T13:55:46;25.00;;;9.68;;
70270;SDS011;57680;54.292;18.598;2022-12-08T13:58:18;25.88;;;9.70;;
70270;SDS011;57680;54.292;18.598;2022-12-08T14:03:21;29.00;;;11.10;;
70270;SDS011;57680;54.292;18.598;2022-12-08T14:05:47;31.75;;;10.25;;
70270;SDS011;57680;54.292;18.598;2022-12-08T14:08:47;24.20;;;9.73;;
70270;SDS011;57680;54.292;18.598;2022-12-08T14:11:07;25.27;;;10.40;;
70270;SDS011;57680;54.292;18.598;2022-12-08T14:13:57;25.90;;;10.15;;
70270;SDS011;57680;54.292;18.598;2022-12-08T14:16:28;24.55;;;9.70;;
70270;SDS011;57680;54.292;18.598;2022-12-08T14:19:13;24.73;;;10.10;;
70270;SDS011;57680;54.292;18.598;2022-12-08T14:21:39;28.47;;;11.03;;
70270;SDS011;57680;54.292;18.598;2022-12-08T14:24:05;26.13;;;9.85;;
70270;SDS011;57680;54.292;18.598;2022-12-08T14:26:31;28.70;;;10.80;;
70270;SDS011;57680;54.292;18.598;2022-12-08T14:28:58;29.45;;;11.05;;
70270;SDS011;57680;54.292;18.598;2022-12-08T14:31:24;29.97;;;10.83;;
70270;SDS011;57680;54.292;18.598;2022-12-08T14:33:52;35.92;;;11.68;;
70270;SDS011;57680;54.292;18.598;2022-12-08T14:36:18;30.15;;;11.55;;
70270;SDS011;57680;54.292;18.598;2022-12-08T14:38:44;34.50;;;11.60;;
70270;SDS011;57680;54.292;18.598;2022-12-08T14:41:11;31.85;;;11.73;;
70270;SDS011;57680;54.292;18.598;2022-12-08T14:43:37;34.83;;;11.50;;
70270;SDS011;57680;54.292;18.598;2022-12-08T14:46:17;32.50;;;12.23;;
70270;SDS011;57680;54.292;18.598;2022-12-08T14:48:44;36.00;;;12.32;;
70270;SDS011;57680;54.292;18.598;2022-12-08T14:53:39;35.28;;;12.57;;
70270;SDS011;57680;54.292;18.598;2022-12-08T14:56:17;36.30;;;12.85;;
70270;SDS011;57680;54.292;18.598;2022-12-08T15:01:53;40.33;;;14.57;;
70270;SDS011;57680;54.292;18.598;2022-12-08T15:18:29;46.20;;;16.52;;
70270;SDS011;57680;54.292;18.598;2022-12-08T15:21:00;42.60;;;15.18;;
70270;SDS011;57680;54.292;18.598;2022-12-08T15:23:29;41.17;;;14.00;;
70270;SDS011;57680;54.292;18.598;2022-12-08T15:25:57;39.47;;;14.40;;
70270;SDS011;57680;54.292;18.598;2022-12-08T15:28:24;40.67;;;15.50;;
70270;SDS011;57680;54.292;18.598;2022-12-08T15:30:55;45.83;;;14.50;;
70270;SDS011;57680;54.292;18.598;2022-12-08T15:33:21;40.97;;;15.00;;
70270;SDS011;57680;54.292;18.598;2022-12-08T15:35:49;41.07;;;14.63;;
70270;SDS011;57680;54.292;18.598;2022-12-08T15:38:25;399.85;;;29.40;;
70270;SDS011;57680;54.292;18.598;2022-12-08T15:40:53;48.55;;;15.98;;
70270;SDS011;57680;54.292;18.598;2022-12-08T15:43:19;42.83;;;15.20;;
70270;SDS011;57680;54.292;18.598;2022-12-08T15:45:45;44.37;;;15.83;;
70270;SDS011;57680;54.292;18.598;2022-12-08T15:48:17;45.65;;;14.05;;
70270;SDS011;57680;54.292;18.598;2022-12-08T15:50:45;45.83;;;15.00;;
70270;SDS011;57680;54.292;18.598;2022-12-08T15:53:11;50.92;;;16.80;;
70270;SDS011;57680;54.292;18.598;2022-12-08T15:55:37;50.63;;;16.83;;
70270;SDS011;57680;54.292;18.598;2022-12-08T15:58:03;52.17;;;17.65;;
70270;SDS011;57680;54.292;18.598;2022-12-08T16:00:33;51.20;;;18.17;;
70270;SDS011;57680;54.292;18.598;2022-12-08T16:03:00;54.58;;;19.15;;
70270;SDS011;57680;54.292;18.598;2022-12-08T16:05:28;60.17;;;20.20;;
70270;SDS011;57680;54.292;18.598;2022-12-08T16:07:55;58.20;;;20.73;;
70270;SDS011;57680;54.292;18.598;2022-12-08T16:10:22;62.08;;;21.58;;
70270;SDS011;57680;54.292;18.598;2022-12-08T16:12:49;63.40;;;20.30;;
70270;SDS011;57680;54.292;18.598;2022-12-08T16:15:34;60.83;;;20.90;;
70270;SDS011;57680;54.292;18.598;2022-12-08T16:18:02;62.43;;;20.30;;
70270;SDS011;57680;54.292;18.598;2022-12-08T16:20:28;60.72;;;20.13;;
70270;SDS011;57680;54.292;18.598;2022-12-08T16:22:53;61.58;;;20.17;;
70270;SDS011;57680;54.292;18.598;2022-12-08T16:25:20;57.47;;;19.27;;
70270;SDS011;57680;54.292;18.598;2022-12-08T16:27:47;59.55;;;20.30;;
70270;SDS011;57680;54.292;18.598;2022-12-08T16:30:15;59.67;;;19.58;;
70270;SDS011;57680;54.292;18.598;2022-12-08T16:32:41;63.47;;;20.02;;
70270;SDS011;57680;54.292;18.598;2022-12-08T16:35:07;64.57;;;21.23;;
70270;SDS011;57680;54.292;18.598;2022-12-08T16:37:34;62.70;;;20.95;;
70270;SDS011;57680;54.292;18.598;2022-12-08T16:39:59;66.10;;;20.17;;
70270;SDS011;57680;54.292;18.598;2022-12-08T16:42:25;60.53;;;19.97;;
70270;SDS011;57680;54.292;18.598;2022-12-08T16:47:40;63.10;;;19.92;;
70270;SDS011;57680;54.292;18.598;2022-12-08T16:50:12;57.92;;;20.10;;
70270;SDS011;57680;54.292;18.598;2022-12-08T16:52:42;60.00;;;20.63;;
70270;SDS011;57680;54.292;18.598;2022-12-08T16:55:12;58.60;;;19.93;;
70270;SDS011;57680;54.292;18.598;2022-12-08T16:57:42;99.07;;;22.15;;
70270;SDS011;57680;54.292;18.598;2022-12-08T17:00:09;78.03;;;22.33;;
70270;SDS011;57680;54.292;18.598;2022-12-08T17:02:37;65.38;;;20.65;;
70270;SDS011;57680;54.292;18.598;2022-12-08T17:05:03;64.10;;;19.93;;
70270;SDS011;57680;54.292;18.598;2022-12-08T17:07:29;59.50;;;19.67;;